sensor_id;sensor_type;location;lat;lon;timestamp;P1;durP1;ratioP1;P2;durP2;ratioP2
31210;SDS011;17836;50.948;3.946;2023-05-07T00:01:53;9.27;;;4.40;;
31210;SDS011;17836;50.948;3.946;2023-05-07T00:04:18;5.28;;;4.07;;
31210;SDS011;17836;50.948;3.946;2023-05-07T00:06:46;11.13;;;4.72;;
31210;SDS011;17836;50.948;3.946;2023-05-07T00:09:11;11.13;;;4.50;;
31210;SDS011;17836;50.948;3.946;2023-05-07T00:11:36;7.00;;;3.72;;
31210;SDS011;17836;50.948;3.946;2023-05-07T00:14:02;8.37;;;4.03;;
31210;SDS011;17836;50.948;3.946;2023-05-07T00:16:27;8.55;;;4.70;;
31210;SDS011;17836;50.948;3.946;2023-05-07T00:18:52;11.85;;;4.35;;
31210;SDS011;17836;50.948;3.946;2023-05-07T00:21:18;9.95;;;5.32;;
31210;SDS011;17836;50.948;3.946;2023-05-07T00:23:43;12.17;;;4.80;;
31210;SDS011;17836;50.948;3.946;2023-05-07T00:26:09;7.43;;;4.43;;
31210;SDS011;17836;50.948;3.946;2023-05-07T00:28:37;10.82;;;5.43;;
31210;SDS011;17836;50.948;3.946;2023-05-07T00:31:04;6.35;;;4.72;;
31210;SDS011;17836;50.948;3.946;2023-05-07T00:33:29;9.00;;;4.65;;
31210;SDS011;17836;50.948;3.946;2023-05-07T00:35:55;13.48;;;5.07;;
31210;SDS011;17836;50.948;3.946;2023-05-07T00:38:20;8.77;;;4.87;;
31210;SDS011;17836;50.948;3.946;2023-05-07T00:40:45;7.43;;;4.13;;
31210;SDS011;17836;50.948;3.946;2023-05-07T00:43:11;8.32;;;4.85;;
31210;SDS011;17836;50.948;3.946;2023-05-07T00:45:37;7.43;;;4.53;;
31210;SDS011;17836;50.948;3.946;2023-05-07T00:48:03;8.82;;;4.60;;
31210;SDS011;17836;50.948;3.946;2023-05-07T00:50:28;7.53;;;4.82;;
31210;SDS011;17836;50.948;3.946;2023-05-07T00:52:57;12.18;;;5.03;;
31210;SDS011;17836;50.948;3.946;2023-05-07T00:55:23;10.07;;;5.22;;
31210;SDS011;17836;50.948;3.946;2023-05-07T00:57:49;10.85;;;5.55;;
31210;SDS011;17836;50.948;3.946;2023-05-07T01:00:14;7.65;;;4.75;;
31210;SDS011;17836;50.948;3.946;2023-05-07T01:02:39;7.10;;;4.80;;
31210;SDS011;17836;50.948;3.946;2023-05-07T01:05:05;6.28;;;4.45;;
31210;SDS011;17836;50.948;3.946;2023-05-07T01:07:32;10.18;;;5.15;;
31210;SDS011;17836;50.948;3.946;2023-05-07T01:09:58;10.63;;;5.60;;
31210;SDS011;17836;50.948;3.946;2023-05-07T01:12:23;8.60;;;5.10;;
31210;SDS011;17836;50.948;3.946;2023-05-07T01:14:49;10.27;;;5.55;;
31210;SDS011;17836;50.948;3.946;2023-05-07T01:17:16;9.50;;;4.50;;
31210;SDS011;17836;50.948;3.946;2023-05-07T01:19:42;9.30;;;4.70;;
31210;SDS011;17836;50.948;3.946;2023-05-07T01:22:08;7.93;;;4.90;;
31210;SDS011;17836;50.948;3.946;2023-05-07T01:24:33;5.57;;;4.45;;
31210;SDS011;17836;50.948;3.946;2023-05-07T01:26:59;9.18;;;4.18;;
31210;SDS011;17836;50.948;3.946;2023-05-07T01:29:26;7.18;;;4.47;;
31210;SDS011;17836;50.948;3.946;2023-05-07T01:31:51;6.33;;;4.20;;
31210;SDS011;17836;50.948;3.946;2023-05-07T01:34:17;7.05;;;4.40;;
31210;SDS011;17836;50.948;3.946;2023-05-07T01:36:43;8.15;;;4.75;;
31210;SDS011;17836;50.948;3.946;2023-05-07T01:39:09;8.38;;;5.07;;
31210;SDS011;17836;50.948;3.946;2023-05-07T01:41:37;7.75;;;4.57;;
31210;SDS011;17836;50.948;3.946;2023-05-07T01:44:02;6.03;;;4.33;;
31210;SDS011;17836;50.948;3.946;2023-05-07T01:46:28;10.95;;;5.45;;
31210;SDS011;17836;50.948;3.946;2023-05-07T01:48:53;7.85;;;5.35;;
31210;SDS011;17836;50.948;3.946;2023-05-07T01:51:19;12.75;;;5.15;;
31210;SDS011;17836;50.948;3.946;2023-05-07T01:53:49;7.70;;;5.60;;
31210;SDS011;17836;50.948;3.946;2023-05-07T01:56:18;9.40;;;5.03;;
31210;SDS011;17836;50.948;3.946;2023-05-07T01:58:44;6.72;;;5.03;;
31210;SDS011;17836;50.948;3.946;2023-05-07T02:01:10;7.57;;;5.10;;
31210;SDS011;17836;50.948;3.946;2023-05-07T02:03:36;8.77;;;5.00;;
31210;SDS011;17836;50.948;3.946;2023-05-07T02:06:01;9.80;;;5.32;;
31210;SDS011;17836;50.948;3.946;2023-05-07T02:08:26;6.53;;;4.97;;
31210;SDS011;17836;50.948;3.946;2023-05-07T02:10:52;7.10;;;4.67;;
31210;SDS011;17836;50.948;3.946;2023-05-07T02:13:19;7.47;;;4.53;;
31210;SDS011;17836;50.948;3.946;2023-05-07T02:15:47;8.13;;;5.35;;
31210;SDS011;17836;50.948;3.946;2023-05-07T02:18:15;6.57;;;4.90;;
31210;SDS011;17836;50.948;3.946;2023-05-07T02:20:41;9.68;;;5.07;;
31210;SDS011;17836;50.948;3.946;2023-05-07T02:23:06;8.03;;;4.67;;
31210;SDS011;17836;50.948;3.946;2023-05-07T02:25:31;8.63;;;4.72;;
31210;SDS011;17836;50.948;3.946;2023-05-07T02:27:57;9.77;;;5.10;;
31210;SDS011;17836;50.948;3.946;2023-05-07T02:30:22;7.13;;;5.05;;
31210;SDS011;17836;50.948;3.946;2023-05-07T02:32:47;7.40;;;4.68;;
31210;SDS011;17836;50.948;3.946;2023-05-07T02:35:13;10.52;;;5.10;;
31210;SDS011;17836;50.948;3.946;2023-05-07T02:37:38;8.53;;;4.77;;
31210;SDS011;17836;50.948;3.946;2023-05-07T02:40:03;6.57;;;4.60;;
31210;SDS011;17836;50.948;3.946;2023-05-07T02:42:29;6.60;;;4.40;;
31210;SDS011;17836;50.948;3.946;2023-05-07T02:44:54;8.23;;;4.23;;
31210;SDS011;17836;50.948;3.946;2023-05-07T02:47:22;7.10;;;4.18;;
31210;SDS011;17836;50.948;3.946;2023-05-07T02:49:50;8.70;;;4.63;;
31210;SDS011;17836;50.948;3.946;2023-05-07T02:52:15;9.30;;;5.18;;
31210;SDS011;17836;50.948;3.946;2023-05-07T02:54:40;9.70;;;4.40;;
31210;SDS011;17836;50.948;3.946;2023-05-07T02:57:08;5.75;;;4.25;;
31210;SDS011;17836;50.948;3.946;2023-05-07T02:59:33;9.03;;;4.83;;
31210;SDS011;17836;50.948;3.946;2023-05-07T03:01:58;6.40;;;4.23;;
31210;SDS011;17836;50.948;3.946;2023-05-07T03:04:23;6.77;;;5.27;;
31210;SDS011;17836;50.948;3.946;2023-05-07T03:06:51;7.70;;;4.75;;
31210;SDS011;17836;50.948;3.946;2023-05-07T03:09:19;9.02;;;5.18;;
31210;SDS011;17836;50.948;3.946;2023-05-07T03:11:48;9.55;;;5.82;;
31210;SDS011;17836;50.948;3.946;2023-05-07T03:14:14;6.47;;;4.97;;
31210;SDS011;17836;50.948;3.946;2023-05-07T03:16:39;6.30;;;4.50;;
31210;SDS011;17836;50.948;3.946;2023-05-07T03:19:04;8.65;;;5.00;;
31210;SDS011;17836;50.948;3.946;2023-05-07T03:21:32;9.65;;;5.97;;
31210;SDS011;17836;50.948;3.946;2023-05-07T03:23:58;6.55;;;4.53;;
31210;SDS011;17836;50.948;3.946;2023-05-07T03:26:24;8.95;;;4.32;;
31210;SDS011;17836;50.948;3.946;2023-05-07T03:28:50;10.35;;;5.47;;
31210;SDS011;17836;50.948;3.946;2023-05-07T03:31:15;8.23;;;4.55;;
31210;SDS011;17836;50.948;3.946;2023-05-07T03:33:53;6.28;;;5.18;;
31210;SDS011;17836;50.948;3.946;2023-05-07T03:36:19;5.50;;;4.13;;
31210;SDS011;17836;50.948;3.946;2023-05-07T03:38:44;5.23;;;4.13;;
31210;SDS011;17836;50.948;3.946;2023-05-07T03:41:09;6.30;;;4.47;;
31210;SDS011;17836;50.948;3.946;2023-05-07T03:43:34;7.57;;;4.47;;
31210;SDS011;17836;50.948;3.946;2023-05-07T03:46:02;8.23;;;4.68;;
31210;SDS011;17836;50.948;3.946;2023-05-07T03:48:27;5.63;;;4.68;;
31210;SDS011;17836;50.948;3.946;2023-05-07T03:50:52;7.80;;;4.80;;
31210;SDS011;17836;50.948;3.946;2023-05-07T03:53:18;7.25;;;4.97;;
31210;SDS011;17836;50.948;3.946;2023-05-07T03:55:43;6.07;;;4.57;;
31210;SDS011;17836;50.948;3.946;2023-05-07T03:58:08;9.80;;;5.00;;
31210;SDS011;17836;50.948;3.946;2023-05-07T04:00:33;7.40;;;4.97;;
31210;SDS011;17836;50.948;3.946;2023-05-07T04:03:03;7.20;;;4.85;;
31210;SDS011;17836;50.948;3.946;2023-05-07T04:05:29;5.05;;;4.55;;
31210;SDS011;17836;50.948;3.946;2023-05-07T04:07:57;10.60;;;4.97;;
31210;SDS011;17836;50.948;3.946;2023-05-07T04:10:25;7.10;;;5.47;;
31210;SDS011;17836;50.948;3.946;2023-05-07T04:12:50;7.80;;;4.90;;
31210;SDS011;17836;50.948;3.946;2023-05-07T04:15:16;7.57;;;5.20;;
31210;SDS011;17836;50.948;3.946;2023-05-07T04:17:41;7.47;;;4.75;;
31210;SDS011;17836;50.948;3.946;2023-05-07T04:20:08;11.20;;;6.43;;
31210;SDS011;17836;50.948;3.946;2023-05-07T04:22:36;7.93;;;5.28;;
31210;SDS011;17836;50.948;3.946;2023-05-07T04:25:04;8.32;;;5.20;;
31210;SDS011;17836;50.948;3.946;2023-05-07T04:27:29;7.70;;;5.28;;
31210;SDS011;17836;50.948;3.946;2023-05-07T04:32:50;9.30;;;5.53;;
31210;SDS011;17836;50.948;3.946;2023-05-07T04:35:15;9.07;;;6.53;;
31210;SDS011;17836;50.948;3.946;2023-05-07T04:37:40;9.45;;;5.55;;
31210;SDS011;17836;50.948;3.946;2023-05-07T04:40:06;8.77;;;6.37;;
31210;SDS011;17836;50.948;3.946;2023-05-07T04:42:37;6.45;;;5.65;;
31210;SDS011;17836;50.948;3.946;2023-05-07T04:45:05;9.80;;;5.97;;
31210;SDS011;17836;50.948;3.946;2023-05-07T04:47:30;10.05;;;5.85;;
31210;SDS011;17836;50.948;3.946;2023-05-07T04:49:58;9.88;;;5.25;;
31210;SDS011;17836;50.948;3.946;2023-05-07T04:52:23;9.73;;;6.03;;
31210;SDS011;17836;50.948;3.946;2023-05-07T04:54:48;8.85;;;5.13;;
31210;SDS011;17836;50.948;3.946;2023-05-07T04:57:14;7.73;;;5.10;;
31210;SDS011;17836;50.948;3.946;2023-05-07T04:59:42;8.73;;;5.03;;
31210;SDS011;17836;50.948;3.946;2023-05-07T05:02:07;7.20;;;4.97;;
31210;SDS011;17836;50.948;3.946;2023-05-07T05:04:32;6.73;;;5.00;;
31210;SDS011;17836;50.948;3.946;2023-05-07T05:06:57;8.40;;;5.17;;
31210;SDS011;17836;50.948;3.946;2023-05-07T05:09:23;6.30;;;4.90;;
31210;SDS011;17836;50.948;3.946;2023-05-07T05:11:53;7.18;;;5.20;;
31210;SDS011;17836;50.948;3.946;2023-05-07T05:14:18;7.43;;;5.68;;
31210;SDS011;17836;50.948;3.946;2023-05-07T05:16:44;7.25;;;5.55;;
31210;SDS011;17836;50.948;3.946;2023-05-07T05:19:09;7.28;;;5.45;;
31210;SDS011;17836;50.948;3.946;2023-05-07T05:21:37;5.95;;;5.13;;
31210;SDS011;17836;50.948;3.946;2023-05-07T05:24:03;7.95;;;5.55;;
31210;SDS011;17836;50.948;3.946;2023-05-07T05:26:28;6.60;;;5.15;;
31210;SDS011;17836;50.948;3.946;2023-05-07T05:28:53;8.60;;;5.20;;
31210;SDS011;17836;50.948;3.946;2023-05-07T05:31:18;11.40;;;5.90;;
31210;SDS011;17836;50.948;3.946;2023-05-07T05:33:44;15.38;;;6.47;;
31210;SDS011;17836;50.948;3.946;2023-05-07T05:36:11;9.20;;;6.35;;
31210;SDS011;17836;50.948;3.946;2023-05-07T05:38:38;12.85;;;5.88;;
31210;SDS011;17836;50.948;3.946;2023-05-07T05:41:03;13.77;;;6.60;;
31210;SDS011;17836;50.948;3.946;2023-05-07T05:43:28;11.10;;;7.18;;
31210;SDS011;17836;50.948;3.946;2023-05-07T05:45:55;15.05;;;7.05;;
31210;SDS011;17836;50.948;3.946;2023-05-07T05:48:20;11.63;;;6.28;;
31210;SDS011;17836;50.948;3.946;2023-05-07T05:50:48;8.27;;;6.03;;
31210;SDS011;17836;50.948;3.946;2023-05-07T05:53:13;8.97;;;6.17;;
31210;SDS011;17836;50.948;3.946;2023-05-07T05:55:38;11.52;;;6.03;;
31210;SDS011;17836;50.948;3.946;2023-05-07T05:58:04;9.35;;;5.40;;
31210;SDS011;17836;50.948;3.946;2023-05-07T06:00:29;9.50;;;5.25;;
31210;SDS011;17836;50.948;3.946;2023-05-07T06:02:54;10.30;;;5.70;;
31210;SDS011;17836;50.948;3.946;2023-05-07T06:05:20;9.48;;;5.78;;
31210;SDS011;17836;50.948;3.946;2023-05-07T06:07:45;10.87;;;5.20;;
31210;SDS011;17836;50.948;3.946;2023-05-07T06:10:10;11.00;;;5.70;;
31210;SDS011;17836;50.948;3.946;2023-05-07T06:12:35;11.80;;;5.15;;
31210;SDS011;17836;50.948;3.946;2023-05-07T06:15:01;10.40;;;5.17;;
31210;SDS011;17836;50.948;3.946;2023-05-07T06:17:26;13.30;;;5.18;;
31210;SDS011;17836;50.948;3.946;2023-05-07T06:19:52;8.50;;;5.38;;
31210;SDS011;17836;50.948;3.946;2023-05-07T06:22:17;10.47;;;5.90;;
31210;SDS011;17836;50.948;3.946;2023-05-07T06:24:42;8.43;;;4.80;;
31210;SDS011;17836;50.948;3.946;2023-05-07T06:27:09;7.50;;;5.13;;
31210;SDS011;17836;50.948;3.946;2023-05-07T06:29:37;9.98;;;5.05;;
31210;SDS011;17836;50.948;3.946;2023-05-07T06:32:06;7.30;;;4.70;;
31210;SDS011;17836;50.948;3.946;2023-05-07T06:34:31;7.80;;;4.38;;
31210;SDS011;17836;50.948;3.946;2023-05-07T06:36:56;8.60;;;5.10;;
31210;SDS011;17836;50.948;3.946;2023-05-07T06:39:22;10.37;;;5.20;;
31210;SDS011;17836;50.948;3.946;2023-05-07T06:41:49;8.60;;;4.78;;
31210;SDS011;17836;50.948;3.946;2023-05-07T06:44:14;9.17;;;4.90;;
31210;SDS011;17836;50.948;3.946;2023-05-07T06:46:44;8.75;;;4.68;;
31210;SDS011;17836;50.948;3.946;2023-05-07T06:49:10;7.93;;;5.00;;
31210;SDS011;17836;50.948;3.946;2023-05-07T06:51:35;8.35;;;4.55;;
31210;SDS011;17836;50.948;3.946;2023-05-07T06:54:00;7.17;;;3.77;;
31210;SDS011;17836;50.948;3.946;2023-05-07T06:56:26;5.93;;;3.50;;
31210;SDS011;17836;50.948;3.946;2023-05-07T06:59:00;5.97;;;3.60;;
31210;SDS011;17836;50.948;3.946;2023-05-07T07:01:25;6.38;;;4.40;;
31210;SDS011;17836;50.948;3.946;2023-05-07T07:03:51;6.28;;;4.00;;
31210;SDS011;17836;50.948;3.946;2023-05-07T07:06:16;10.20;;;4.63;;
31210;SDS011;17836;50.948;3.946;2023-05-07T07:08:42;8.90;;;4.25;;
31210;SDS011;17836;50.948;3.946;2023-05-07T07:11:07;7.63;;;4.63;;
31210;SDS011;17836;50.948;3.946;2023-05-07T07:13:33;10.77;;;5.07;;
31210;SDS011;17836;50.948;3.946;2023-05-07T07:15:58;5.80;;;3.53;;
31210;SDS011;17836;50.948;3.946;2023-05-07T07:18:23;9.97;;;4.93;;
31210;SDS011;17836;50.948;3.946;2023-05-07T07:20:51;7.03;;;3.75;;
31210;SDS011;17836;50.948;3.946;2023-05-07T07:23:16;6.93;;;3.60;;
31210;SDS011;17836;50.948;3.946;2023-05-07T07:25:42;8.88;;;3.88;;
31210;SDS011;17836;50.948;3.946;2023-05-07T07:28:07;4.05;;;3.45;;
31210;SDS011;17836;50.948;3.946;2023-05-07T07:30:32;4.13;;;3.47;;
31210;SDS011;17836;50.948;3.946;2023-05-07T07:33:00;4.78;;;3.47;;
31210;SDS011;17836;50.948;3.946;2023-05-07T07:35:28;4.22;;;3.08;;
31210;SDS011;17836;50.948;3.946;2023-05-07T07:37:53;4.15;;;3.30;;
31210;SDS011;17836;50.948;3.946;2023-05-07T07:40:19;6.68;;;3.70;;
31210;SDS011;17836;50.948;3.946;2023-05-07T07:42:44;5.97;;;3.35;;
31210;SDS011;17836;50.948;3.946;2023-05-07T07:45:10;6.90;;;3.63;;
31210;SDS011;17836;50.948;3.946;2023-05-07T07:47:35;7.03;;;3.30;;
31210;SDS011;17836;50.948;3.946;2023-05-07T07:50:00;5.57;;;3.83;;
31210;SDS011;17836;50.948;3.946;2023-05-07T07:52:26;7.43;;;4.10;;
31210;SDS011;17836;50.948;3.946;2023-05-07T07:54:51;5.87;;;3.77;;
31210;SDS011;17836;50.948;3.946;2023-05-07T07:57:16;7.27;;;3.47;;
31210;SDS011;17836;50.948;3.946;2023-05-07T07:59:41;5.47;;;3.38;;
31210;SDS011;17836;50.948;3.946;2023-05-07T08:02:08;9.50;;;4.15;;
31210;SDS011;17836;50.948;3.946;2023-05-07T08:04:33;8.35;;;3.40;;
31210;SDS011;17836;50.948;3.946;2023-05-07T08:06:58;5.37;;;4.03;;
31210;SDS011;17836;50.948;3.946;2023-05-07T08:09:26;7.32;;;3.08;;
31210;SDS011;17836;50.948;3.946;2023-05-07T08:11:53;7.38;;;3.90;;
31210;SDS011;17836;50.948;3.946;2023-05-07T08:14:19;5.70;;;3.63;;
31210;SDS011;17836;50.948;3.946;2023-05-07T08:16:44;8.05;;;3.78;;
31210;SDS011;17836;50.948;3.946;2023-05-07T08:19:09;7.85;;;3.80;;
31210;SDS011;17836;50.948;3.946;2023-05-07T08:21:38;6.35;;;3.85;;
31210;SDS011;17836;50.948;3.946;2023-05-07T08:24:04;5.72;;;3.92;;
31210;SDS011;17836;50.948;3.946;2023-05-07T08:26:29;7.80;;;4.15;;
31210;SDS011;17836;50.948;3.946;2023-05-07T08:28:55;10.63;;;4.53;;
31210;SDS011;17836;50.948;3.946;2023-05-07T08:31:20;8.93;;;4.33;;
31210;SDS011;17836;50.948;3.946;2023-05-07T08:33:45;5.63;;;4.40;;
31210;SDS011;17836;50.948;3.946;2023-05-07T08:36:10;5.67;;;4.00;;
31210;SDS011;17836;50.948;3.946;2023-05-07T08:38:36;10.83;;;4.43;;
31210;SDS011;17836;50.948;3.946;2023-05-07T08:41:01;8.00;;;4.10;;
31210;SDS011;17836;50.948;3.946;2023-05-07T08:43:26;7.43;;;4.17;;
31210;SDS011;17836;50.948;3.946;2023-05-07T08:45:53;6.72;;;4.45;;
31210;SDS011;17836;50.948;3.946;2023-05-07T08:48:19;6.57;;;5.05;;
31210;SDS011;17836;50.948;3.946;2023-05-07T08:50:46;6.70;;;3.90;;
31210;SDS011;17836;50.948;3.946;2023-05-07T08:53:14;8.60;;;4.47;;
31210;SDS011;17836;50.948;3.946;2023-05-07T08:55:44;6.93;;;3.95;;
31210;SDS011;17836;50.948;3.946;2023-05-07T08:58:09;6.63;;;4.22;;
31210;SDS011;17836;50.948;3.946;2023-05-07T09:00:36;8.45;;;4.90;;
31210;SDS011;17836;50.948;3.946;2023-05-07T09:03:01;7.35;;;4.45;;
31210;SDS011;17836;50.948;3.946;2023-05-07T09:05:28;6.85;;;4.38;;
31210;SDS011;17836;50.948;3.946;2023-05-07T09:07:54;10.60;;;4.83;;
31210;SDS011;17836;50.948;3.946;2023-05-07T09:10:20;6.97;;;4.30;;
31210;SDS011;17836;50.948;3.946;2023-05-07T09:12:46;5.78;;;4.20;;
31210;SDS011;17836;50.948;3.946;2023-05-07T09:15:11;5.53;;;4.28;;
31210;SDS011;17836;50.948;3.946;2023-05-07T09:17:37;7.78;;;4.72;;
31210;SDS011;17836;50.948;3.946;2023-05-07T09:20:03;5.20;;;4.13;;
31210;SDS011;17836;50.948;3.946;2023-05-07T09:22:31;4.70;;;3.53;;
31210;SDS011;17836;50.948;3.946;2023-05-07T09:24:56;6.72;;;3.70;;
31210;SDS011;17836;50.948;3.946;2023-05-07T09:27:22;7.50;;;3.77;;
31210;SDS011;17836;50.948;3.946;2023-05-07T09:29:47;5.17;;;4.17;;
31210;SDS011;17836;50.948;3.946;2023-05-07T09:32:12;5.13;;;3.55;;
31210;SDS011;17836;50.948;3.946;2023-05-07T09:34:42;6.57;;;4.28;;
31210;SDS011;17836;50.948;3.946;2023-05-07T09:37:07;4.78;;;3.45;;
31210;SDS011;17836;50.948;3.946;2023-05-07T09:39:39;6.17;;;3.50;;
31210;SDS011;17836;50.948;3.946;2023-05-07T09:42:05;4.82;;;3.13;;
31210;SDS011;17836;50.948;3.946;2023-05-07T09:44:31;4.43;;;2.83;;
31210;SDS011;17836;50.948;3.946;2023-05-07T09:46:57;3.53;;;2.40;;
31210;SDS011;17836;50.948;3.946;2023-05-07T09:49:24;3.15;;;2.60;;
31210;SDS011;17836;50.948;3.946;2023-05-07T09:51:51;4.68;;;2.80;;
31210;SDS011;17836;50.948;3.946;2023-05-07T09:54:17;4.32;;;2.92;;
31210;SDS011;17836;50.948;3.946;2023-05-07T09:56:43;3.95;;;3.15;;
31210;SDS011;17836;50.948;3.946;2023-05-07T09:59:13;5.07;;;2.83;;
31210;SDS011;17836;50.948;3.946;2023-05-07T10:01:38;7.30;;;3.58;;
31210;SDS011;17836;50.948;3.946;2023-05-07T10:04:05;4.30;;;3.85;;
31210;SDS011;17836;50.948;3.946;2023-05-07T10:06:30;5.47;;;4.07;;
31210;SDS011;17836;50.948;3.946;2023-05-07T10:08:56;5.38;;;3.17;;
31210;SDS011;17836;50.948;3.946;2023-05-07T10:11:22;4.47;;;3.28;;
31210;SDS011;17836;50.948;3.946;2023-05-07T10:13:48;4.65;;;3.22;;
31210;SDS011;17836;50.948;3.946;2023-05-07T10:16:13;5.85;;;4.13;;
31210;SDS011;17836;50.948;3.946;2023-05-07T10:18:38;6.70;;;4.22;;
31210;SDS011;17836;50.948;3.946;2023-05-07T10:21:08;5.25;;;3.70;;
31210;SDS011;17836;50.948;3.946;2023-05-07T10:23:35;5.15;;;3.20;;
31210;SDS011;17836;50.948;3.946;2023-05-07T10:26:02;4.78;;;2.78;;
31210;SDS011;17836;50.948;3.946;2023-05-07T10:28:30;3.10;;;2.63;;
31210;SDS011;17836;50.948;3.946;2023-05-07T10:33:26;5.95;;;2.50;;
31210;SDS011;17836;50.948;3.946;2023-05-07T10:35:52;3.35;;;2.72;;
31210;SDS011;17836;50.948;3.946;2023-05-07T10:38:20;2.58;;;2.33;;
31210;SDS011;17836;50.948;3.946;2023-05-07T10:40:46;3.70;;;2.88;;
31210;SDS011;17836;50.948;3.946;2023-05-07T10:43:11;3.23;;;2.33;;
31210;SDS011;17836;50.948;3.946;2023-05-07T10:45:36;3.65;;;2.65;;
31210;SDS011;17836;50.948;3.946;2023-05-07T10:48:05;3.20;;;2.50;;
31210;SDS011;17836;50.948;3.946;2023-05-07T10:50:31;3.95;;;3.40;;
31210;SDS011;17836;50.948;3.946;2023-05-07T10:55:40;2.88;;;2.53;;
31210;SDS011;17836;50.948;3.946;2023-05-07T11:00:46;2.42;;;2.22;;
31210;SDS011;17836;50.948;3.946;2023-05-07T11:03:12;3.47;;;2.78;;
31210;SDS011;17836;50.948;3.946;2023-05-07T11:05:40;4.28;;;3.83;;
31210;SDS011;17836;50.948;3.946;2023-05-07T11:08:05;5.60;;;3.00;;
31210;SDS011;17836;50.948;3.946;2023-05-07T11:13:15;3.63;;;3.33;;
31210;SDS011;17836;50.948;3.946;2023-05-07T11:15:41;4.45;;;2.97;;
31210;SDS011;17836;50.948;3.946;2023-05-07T11:18:08;3.15;;;2.80;;
31210;SDS011;17836;50.948;3.946;2023-05-07T11:26:05;3.95;;;3.05;;
31210;SDS011;17836;50.948;3.946;2023-05-07T11:28:31;2.53;;;2.13;;
31210;SDS011;17836;50.948;3.946;2023-05-07T11:31:01;3.20;;;2.30;;
31210;SDS011;17836;50.948;3.946;2023-05-07T11:33:29;3.13;;;2.10;;
31210;SDS011;17836;50.948;3.946;2023-05-07T11:35:55;2.35;;;1.92;;
31210;SDS011;17836;50.948;3.946;2023-05-07T11:38:23;4.35;;;2.03;;
31210;SDS011;17836;50.948;3.946;2023-05-07T11:40:49;3.00;;;2.10;;
31210;SDS011;17836;50.948;3.946;2023-05-07T11:43:16;3.28;;;2.33;;
31210;SDS011;17836;50.948;3.946;2023-05-07T11:45:42;2.15;;;1.95;;
31210;SDS011;17836;50.948;3.946;2023-05-07T11:48:07;2.72;;;1.77;;
31210;SDS011;17836;50.948;3.946;2023-05-07T11:50:33;2.83;;;2.10;;
31210;SDS011;17836;50.948;3.946;2023-05-07T11:52:58;1.70;;;1.60;;
31210;SDS011;17836;50.948;3.946;2023-05-07T11:55:24;1.67;;;1.57;;
31210;SDS011;17836;50.948;3.946;2023-05-07T11:57:49;1.60;;;1.50;;
31210;SDS011;17836;50.948;3.946;2023-05-07T12:00:17;2.15;;;1.73;;
31210;SDS011;17836;50.948;3.946;2023-05-07T12:02:43;2.65;;;1.60;;
31210;SDS011;17836;50.948;3.946;2023-05-07T12:05:08;2.38;;;1.95;;
31210;SDS011;17836;50.948;3.946;2023-05-07T12:07:34;3.57;;;1.57;;
31210;SDS011;17836;50.948;3.946;2023-05-07T12:09:59;1.80;;;1.70;;
31210;SDS011;17836;50.948;3.946;2023-05-07T12:12:24;1.83;;;1.57;;
31210;SDS011;17836;50.948;3.946;2023-05-07T12:14:51;2.75;;;1.98;;
31210;SDS011;17836;50.948;3.946;2023-05-07T12:17:17;1.97;;;1.80;;
31210;SDS011;17836;50.948;3.946;2023-05-07T12:19:45;2.17;;;1.73;;
31210;SDS011;17836;50.948;3.946;2023-05-07T12:22:10;2.65;;;1.52;;
31210;SDS011;17836;50.948;3.946;2023-05-07T12:24:48;3.05;;;2.22;;
31210;SDS011;17836;50.948;3.946;2023-05-07T12:27:16;2.05;;;1.95;;
31210;SDS011;17836;50.948;3.946;2023-05-07T12:32:18;4.45;;;2.53;;
31210;SDS011;17836;50.948;3.946;2023-05-07T12:34:46;2.58;;;2.38;;
31210;SDS011;17836;50.948;3.946;2023-05-07T12:37:14;3.08;;;2.42;;
31210;SDS011;17836;50.948;3.946;2023-05-07T12:39:47;3.30;;;3.00;;
31210;SDS011;17836;50.948;3.946;2023-05-07T12:42:16;2.72;;;2.53;;
31210;SDS011;17836;50.948;3.946;2023-05-07T12:44:43;3.58;;;2.53;;
31210;SDS011;17836;50.948;3.946;2023-05-07T12:47:10;6.80;;;2.58;;
31210;SDS011;17836;50.948;3.946;2023-05-07T12:49:38;3.03;;;2.72;;
31210;SDS011;17836;50.948;3.946;2023-05-07T12:52:04;3.42;;;3.13;;
31210;SDS011;17836;50.948;3.946;2023-05-07T12:57:02;4.38;;;3.97;;
31210;SDS011;17836;50.948;3.946;2023-05-07T12:59:37;4.45;;;4.15;;
31210;SDS011;17836;50.948;3.946;2023-05-07T13:02:03;3.90;;;3.60;;
31210;SDS011;17836;50.948;3.946;2023-05-07T13:04:28;4.78;;;4.07;;
31210;SDS011;17836;50.948;3.946;2023-05-07T13:06:53;4.40;;;4.10;;
31210;SDS011;17836;50.948;3.946;2023-05-07T13:09:18;6.03;;;4.07;;
31210;SDS011;17836;50.948;3.946;2023-05-07T13:11:44;3.85;;;3.50;;
31210;SDS011;17836;50.948;3.946;2023-05-07T13:14:09;4.45;;;3.95;;
31210;SDS011;17836;50.948;3.946;2023-05-07T13:16:35;4.50;;;4.20;;
31210;SDS011;17836;50.948;3.946;2023-05-07T13:19:00;5.10;;;4.00;;
31210;SDS011;17836;50.948;3.946;2023-05-07T13:21:25;4.20;;;3.63;;
31210;SDS011;17836;50.948;3.946;2023-05-07T13:23:51;4.80;;;3.95;;
31210;SDS011;17836;50.948;3.946;2023-05-07T13:26:17;4.50;;;3.97;;
31210;SDS011;17836;50.948;3.946;2023-05-07T13:28:45;4.53;;;3.97;;
31210;SDS011;17836;50.948;3.946;2023-05-07T13:31:10;5.30;;;4.43;;
31210;SDS011;17836;50.948;3.946;2023-05-07T13:33:35;4.23;;;3.80;;
31210;SDS011;17836;50.948;3.946;2023-05-07T13:36:01;4.03;;;3.73;;
31210;SDS011;17836;50.948;3.946;2023-05-07T13:38:33;3.10;;;2.90;;
31210;SDS011;17836;50.948;3.946;2023-05-07T13:40:58;4.25;;;3.72;;
31210;SDS011;17836;50.948;3.946;2023-05-07T13:43:24;4.47;;;4.07;;
31210;SDS011;17836;50.948;3.946;2023-05-07T13:45:49;5.43;;;4.20;;
31210;SDS011;17836;50.948;3.946;2023-05-07T13:48:14;4.40;;;4.00;;
31210;SDS011;17836;50.948;3.946;2023-05-07T13:50:40;4.97;;;4.10;;
31210;SDS011;17836;50.948;3.946;2023-05-07T13:53:05;4.93;;;4.43;;
31210;SDS011;17836;50.948;3.946;2023-05-07T13:55:30;4.30;;;3.70;;
31210;SDS011;17836;50.948;3.946;2023-05-07T13:57:58;4.67;;;4.27;;
31210;SDS011;17836;50.948;3.946;2023-05-07T14:00:24;3.88;;;3.58;;
31210;SDS011;17836;50.948;3.946;2023-05-07T14:02:50;4.70;;;4.32;;
31210;SDS011;17836;50.948;3.946;2023-05-07T14:05:17;4.55;;;4.07;;
31210;SDS011;17836;50.948;3.946;2023-05-07T14:07:43;5.25;;;4.75;;
31210;SDS011;17836;50.948;3.946;2023-05-07T14:10:08;6.57;;;4.93;;
31210;SDS011;17836;50.948;3.946;2023-05-07T14:12:34;5.40;;;4.80;;
31210;SDS011;17836;50.948;3.946;2023-05-07T14:14:59;5.20;;;4.70;;
31210;SDS011;17836;50.948;3.946;2023-05-07T14:17:25;6.13;;;5.50;;
31210;SDS011;17836;50.948;3.946;2023-05-07T14:19:52;5.82;;;5.20;;
31210;SDS011;17836;50.948;3.946;2023-05-07T14:22:19;5.70;;;5.25;;
31210;SDS011;17836;50.948;3.946;2023-05-07T14:24:45;6.78;;;5.82;;
31210;SDS011;17836;50.948;3.946;2023-05-07T14:27:10;6.83;;;5.90;;
31210;SDS011;17836;50.948;3.946;2023-05-07T14:29:35;7.17;;;6.47;;
31210;SDS011;17836;50.948;3.946;2023-05-07T14:32:01;7.28;;;6.43;;
31210;SDS011;17836;50.948;3.946;2023-05-07T14:34:27;11.82;;;7.60;;
31210;SDS011;17836;50.948;3.946;2023-05-07T14:36:52;8.90;;;7.40;;
31210;SDS011;17836;50.948;3.946;2023-05-07T14:39:18;8.93;;;6.83;;
31210;SDS011;17836;50.948;3.946;2023-05-07T14:41:43;8.70;;;7.07;;
31210;SDS011;17836;50.948;3.946;2023-05-07T14:44:08;8.20;;;7.23;;
31210;SDS011;17836;50.948;3.946;2023-05-07T14:46:33;10.00;;;7.70;;
31210;SDS011;17836;50.948;3.946;2023-05-07T14:49:01;10.87;;;8.13;;
31210;SDS011;17836;50.948;3.946;2023-05-07T14:51:29;9.80;;;7.00;;
31210;SDS011;17836;50.948;3.946;2023-05-07T14:53:56;10.45;;;8.23;;
31210;SDS011;17836;50.948;3.946;2023-05-07T14:56:25;10.18;;;8.20;;
31210;SDS011;17836;50.948;3.946;2023-05-07T14:58:50;9.73;;;7.78;;
31210;SDS011;17836;50.948;3.946;2023-05-07T15:01:15;11.40;;;8.20;;
31210;SDS011;17836;50.948;3.946;2023-05-07T15:03:41;10.27;;;8.33;;